FVHA/HRE METAR and TAF weather

Enter ICAO airport designator
Station Type Date Time Source
FVHA METAR 2017/12/23 14:00 UTC NOAA

FVHA 231400Z 36006KT 9999 -RA FEW025TCU BKN080 20/20 Q1017 NOSIG


Station Type Date Time Source
FVHA Decoded METAR 2017/12/23 14:00 UTC NOAA

Harare Kutsaga , Zimbabwe (FVHA) 17-55S 031-08E 1480M
Dec 23, 2017 - 09:00 AM EST / 2017.12.23 1400 UTC
Wind: from the N (360 degrees) at 7 MPH (6 KT):0
Visibility: greater than 7 mile(s):0
Sky conditions: mostly cloudy
Weather: light rain; Towering cumulus clouds observed
Temperature: 68 F (20 C)
Dew Point: 68 F (20 C)
Relative Humidity: 100%
Pressure (altimeter): 30.03 in. Hg (1017 hPa)
ob: FVHA 231400Z 36006KT 9999 -RA FEW025TCU BKN080 20/20 Q1017 NOSIG
cycle: 14

Station Type Date Time Source
FVHA TAF 2017/12/23 12:27 UTC NOAA

TAF FVHA 231000Z 2312/2418 19009KT 9999 FEW020CB BKN025 PROB30
TEMPO 2312/2318 8000 -TSRA FEW020CB BKN080
BECMG 2319/2321 9999 -RA BKN080
FM232300Z CAVOK
BECMG 2406/2408 SCT030
BECMG 2409/2411 9999 FEW030TCU BKN030 PROB30
TEMPO 2412/2418 8000 -TSRA FEW025CB BKN080


Example: see airport list